ADDS METAR Data INFO
IDs: Format: Raw Decoded Include TAF

Data at: 0318 UTC 20 Jul 2018

KFKS 200315Z AUTO 00000KT 10SM CLR 20/14 A2988 RMK AO2 T02040135
KFKS 200255Z AUTO 00000KT 10SM CLR 23/13 A2988 RMK AO2 T02250129
KFKS 200235Z AUTO 07006KT 10SM CLR 23/13 A2988 RMK AO2 T02280130
KFKS 200215Z AUTO 09004KT 10SM CLR 19/15 A2988 RMK AO2 T01940150
KFKS 200155Z AUTO 00000KT 10SM SCT120 19/15 A2988 RMK AO2 T01940153
KFKS 200135Z AUTO 00000KT 10SM SCT120 21/15 A2987 RMK AO2 T02050149
KFKS 200115Z AUTO 00000KT 10SM CLR 21/15 A2988 RMK AO2 T02130149
KFKS 200055Z AUTO 00000KT 10SM CLR 23/15 A2988 RMK AO2 T02260148
KFKS 200035Z AUTO 00000KT 10SM CLR 25/14 A2988 RMK AO2 T02500137
KFKS 200015Z AUTO 19004KT 10SM CLR 25/13 A2989 RMK AO2 T02520134
KFKS 192355Z AUTO 20003KT 10SM CLR 26/13 A2989 RMK AO2 T02550133 10270 20252
KFKS 192335Z AUTO 20004KT 10SM CLR 26/13 A2990 RMK AO2 T02550132
KFKS 192315Z AUTO 20005KT 10SM CLR 26/13 A2991 RMK AO2 T02550130
KFKS 192255Z AUTO 20007KT 10SM CLR 26/13 A2991 RMK AO2 T02550127
KFKS 192235Z AUTO 20004KT 10SM CLR 26/13 A2992 RMK AO2 T02600131
KFKS 192215Z AUTO 20006KT 10SM CLR 26/12 A2993 RMK AO2 T02570123
KFKS 192155Z AUTO 21005KT 10SM CLR 26/12 A2993 RMK AO2 T02590122
KFKS 192135Z AUTO 22006KT 10SM CLR 26/12 A2994 RMK AO2 T02620120
KFKS 192115Z AUTO 22008KT 10SM CLR 27/12 A2994 RMK AO2 T02650120
KFKS 192055Z AUTO 23005KT 10SM SCT065 26/12 A2995 RMK AO2 T02640123
KFKS 192036Z AUTO 23004KT 10SM SCT065 27/12 A2995 RMK AO2 T02680122
KFKS 192015Z AUTO 20007KT 180V240 10SM CLR 27/12 A2995 RMK AO2 T02680121
KFKS 191955Z AUTO 20008KT 10SM CLR 27/12 A2996 RMK AO2 T02680123
KFKS 191935Z AUTO 27004KT 10SM CLR 26/12 A2996 RMK AO2 T02640117
KFKS 191915Z AUTO 26006KT 10SM CLR 27/12 A2997 RMK AO2 T02670117
KFKS 191855Z AUTO 28004KT 10SM CLR 26/11 A2998 RMK AO2 T02600110
KFKS 191835Z AUTO 24007KT 10SM CLR 26/11 A2999 RMK AO2 T02550105
KFKS 191815Z AUTO 27007KT 10SM CLR 26/10 A2999 RMK AO2 T02570103
KFKS 191755Z AUTO 26005KT 10SM CLR 25/10 A3000 RMK AO2 T02540103 10256 20128
KFKS 191735Z AUTO 24004KT 10SM CLR 25/11 A3000 RMK AO2 T02520114
KFKS 191715Z AUTO 20007KT 120V220 10SM CLR 25/10 A3000 RMK AO2 T02500100
KFKS 191655Z AUTO 00000KT 10SM CLR 24/11 A3000 RMK AO2 T02430105
KFKS 191635Z AUTO 15007KT 10SM CLR 24/10 A3001 RMK AO2 T02400102
KFKS 191615Z AUTO 17004KT 10SM CLR 24/12 A3001 RMK AO2 T02370120
KFKS 191555Z AUTO 14006KT 10SM CLR 23/12 A3002 RMK AO2 T02270124
KFKS 191535Z AUTO 11005KT 10SM CLR 22/12 A3002 RMK AO2 T02210122
KFKS 191515Z AUTO 16005KT 10SM CLR 22/13 A3002 RMK AO2 T02170132
KFKS 191455Z AUTO 17005KT 10SM CLR 21/14 A3003 RMK AO2 T02120138
KFKS 191435Z AUTO 00000KT 10SM CLR 21/14 A3004 RMK AO2 T02060142
KFKS 191415Z AUTO 14003KT 10SM CLR 20/15 A3004 RMK AO2 T01960146
KFKS 191355Z AUTO 15004KT 10SM CLR 20/15 A3004 RMK AO2 T01960148
KFKS 191335Z AUTO 13003KT 10SM CLR 19/15 A3004 RMK AO2 T01900148
KFKS 191315Z AUTO 15004KT 10SM CLR 18/15 A3004 RMK AO2 T01800147
KFKS 191255Z AUTO 00000KT 10SM CLR 18/14 A3004 RMK AO2 T01750144
KFKS 191235Z AUTO 00000KT 10SM CLR 16/15 A3005 RMK AO2 T01550145
KFKS 191215Z AUTO 00000KT 10SM CLR 14/14 A3005 RMK AO2 T01430138
KFKS 191155Z AUTO 00000KT 10SM CLR 13/13 A3005 RMK AO2 T01260126 10126 20090
KFKS 191135Z AUTO 00000KT 10SM CLR 11/11 A3005 RMK AO2 T01070107
KFKS 191115Z AUTO 00000KT 10SM CLR 10/10 A3006 RMK AO2 T00980097
KFKS 191055Z AUTO 00000KT 10SM CLR 10/09 A3006 RMK AO2 T00950092
KFKS 191035Z AUTO 00000KT 10SM CLR 09/09 A3006 RMK AO2 T00910091
KFKS 191015Z AUTO 00000KT 10SM CLR 09/09 A3006 RMK AO2 T00940094
KFKS 190955Z AUTO 00000KT 10SM CLR 09/09 A3006 RMK AO2 T00920091
KFKS 190935Z AUTO 00000KT 10SM CLR 10/10 A3006 RMK AO2 T00980098
KFKS 190915Z AUTO 00000KT 10SM CLR 10/10 A3006 RMK AO2 T00950095
KFKS 190855Z AUTO 00000KT 10SM CLR 10/10 A3006 RMK AO2 T00990099
KFKS 190835Z AUTO 00000KT 10SM CLR 10/10 A3005 RMK AO2 T01000100
KFKS 190815Z AUTO 00000KT 10SM CLR 10/10 A3006 RMK AO2 T00990099
KFKS 190755Z AUTO 00000KT 10SM CLR 10/10 A3005 RMK AO2 T01000100
KFKS 190735Z AUTO 00000KT 7SM CLR 10/10 A3005 RMK AO2 T00990099
KFKS 190715Z AUTO 00000KT 10SM CLR 10/10 A3006 RMK AO2 T01020102
KFKS 190655Z AUTO 00000KT 10SM CLR 11/11 A3007 RMK AO2 T01060106
KFKS 190635Z AUTO 00000KT 10SM CLR 10/10 A3006 RMK AO2 T01040104
KFKS 190615Z AUTO 00000KT 10SM CLR 11/11 A3006 RMK AO2 T01050105
KFKS 190555Z AUTO 00000KT 10SM CLR 11/11 A3005 RMK AO2 T01110111 10200 20105 402270081
KFKS 190535Z AUTO 00000KT 10SM CLR 11/11 A3005 RMK AO2 T01060106
KFKS 190515Z AUTO 00000KT 10SM CLR 11/11 A3005 RMK AO2 T01140114
KFKS 190455Z AUTO 00000KT 10SM CLR 12/12 A3005 RMK AO2 T01160116
KFKS 190435Z AUTO 00000KT 10SM CLR 12/12 A3005 RMK AO2 T01160116
KFKS 190415Z AUTO 00000KT 10SM CLR 12/12 A3005 RMK AO2 T01200120
KFKS 190355Z AUTO 00000KT 10SM CLR 12/12 A3006 RMK AO2 T01190119
KFKS 190335Z AUTO 00000KT 10SM CLR 13/12 A3006 RMK AO2 T01260123
KFKS 190315Z AUTO 00000KT 10SM CLR 13/13 A3006 RMK AO2 T01290127
KFKS 190255Z AUTO 00000KT 10SM CLR 13/13 A3006 RMK AO2 T01340134
KFKS 190235Z AUTO 00000KT 10SM CLR 14/13 A3006 RMK AO2 T01350132
KFKS 190215Z AUTO 00000KT 10SM CLR 14/13 A3006 RMK AO2 T01400133
KFKS 190155Z AUTO 00000KT 10SM CLR 15/14 A3006 RMK AO2 T01460135
KFKS 190135Z AUTO 00000KT 10SM CLR 15/14 A3005 RMK AO2 T01530137
KFKS 190115Z AUTO 00000KT 10SM CLR 17/14 A3006 RMK AO2 T01700135
KFKS 190055Z AUTO 00000KT 10SM CLR 19/13 A3006 RMK AO2 T01870130
KFKS 190035Z AUTO 00000KT 10SM CLR 20/13 A3007 RMK AO2 T01950130
KFKS 190015Z AUTO 00000KT 10SM CLR 20/13 A3007 RMK AO2 T02000127
KFKS 182355Z AUTO 26004KT 10SM CLR 20/13 A3008 RMK AO2 T02000126 10227 20200
KFKS 182335Z AUTO 27005KT 10SM CLR 20/13 A3008 RMK AO2 T02040127
KFKS 182315Z AUTO 29005KT 10SM CLR 21/12 A3008 RMK AO2 T02070124
KFKS 182255Z AUTO 30006KT 10SM CLR 21/12 A3008 RMK AO2 T02060120
KFKS 182235Z AUTO 27007KT 10SM CLR 21/12 A3009 RMK AO2 T02110120
KFKS 182215Z AUTO 29007KT 10SM CLR 22/11 A3009 RMK AO2 T02160111
KFKS 182155Z AUTO 28005KT 10SM CLR 22/11 A3009 RMK AO2 T02170108
KFKS 182135Z AUTO 28008KT 10SM CLR 22/11 A3010 RMK AO2 T02190107
KFKS 182115Z AUTO 26008KT 10SM CLR 22/11 A3010 RMK AO2 T02160114
KFKS 182055Z AUTO 26009KT 10SM CLR 23/11 A3010 RMK AO2 T02250114
KFKS 182035Z AUTO 27005KT 10SM CLR 23/12 A3010 RMK AO2 T02260121
KFKS 182015Z AUTO 31006KT 10SM CLR 22/12 A3011 RMK AO2 T02210118
KFKS 181955Z AUTO 34003KT 10SM CLR 22/12 A3011 RMK AO2 T02150115
KFKS 181935Z AUTO 35005KT 10SM CLR 22/12 A3012 RMK AO2 T02190115
KFKS 181915Z AUTO 36005KT 10SM CLR 22/12 A3012 RMK AO2 T02170115
KFKS 181855Z AUTO 35003KT 10SM CLR 22/12 A3013 RMK AO2 T02150118
KFKS 181835Z AUTO 34005KT 10SM CLR 21/12 A3013 RMK AO2 T02130122
KFKS 181815Z AUTO 34005KT 10SM CLR 21/12 A3013 RMK AO2 T02110121
KFKS 181755Z AUTO 02004KT 10SM CLR 22/12 A3013 RMK AO2 T02150124 10215 20122
KFKS 181735Z AUTO 35004KT 10SM CLR 21/12 A3013 RMK AO2 T02100122
KFKS 181715Z AUTO 01004KT 10SM CLR 21/12 A3013 RMK AO2 T02110123
KFKS 181656Z AUTO 35003KT 10SM CLR 21/13 A3013 RMK AO2 T02100125
KFKS 181635Z AUTO 31004KT 10SM CLR 21/12 A3014 RMK AO2 T02100124
KFKS 181615Z AUTO 05004KT 10SM CLR 21/13 A3015 RMK AO2 T02130126
KFKS 181555Z AUTO 35003KT 10SM CLR 21/12 A3015 RMK AO2 T02060123
KFKS 181535Z AUTO 35004KT 10SM CLR 20/13 A3015 RMK AO2 T02040125